sensor_id;sensor_type;location;lat;lon;timestamp;temperature;humidity
43651;DHT22;29247;50.944;5.382;2023-01-23T00:01:27;3.50;90.60
43651;DHT22;29247;50.944;5.382;2023-01-23T00:03:53;3.50;90.60
43651;DHT22;29247;50.944;5.382;2023-01-23T00:06:20;3.50;90.60
43651;DHT22;29247;50.944;5.382;2023-01-23T00:08:46;3.50;90.60
43651;DHT22;29247;50.944;5.382;2023-01-23T00:11:14;3.50;90.60
43651;DHT22;29247;50.944;5.382;2023-01-23T00:13:42;3.50;90.60
43651;DHT22;29247;50.944;5.382;2023-01-23T00:16:11;3.60;90.60
43651;DHT22;29247;50.944;5.382;2023-01-23T00:18:43;3.50;90.60
43651;DHT22;29247;50.944;5.382;2023-01-23T00:21:11;3.50;90.60
43651;DHT22;29247;50.944;5.382;2023-01-23T00:23:37;3.50;90.60
43651;DHT22;29247;50.944;5.382;2023-01-23T00:26:08;3.50;90.60
43651;DHT22;29247;50.944;5.382;2023-01-23T00:28:35;3.50;90.60
43651;DHT22;29247;50.944;5.382;2023-01-23T00:31:14;3.50;90.60
43651;DHT22;29247;50.944;5.382;2023-01-23T00:33:44;3.50;90.60
43651;DHT22;29247;50.944;5.382;2023-01-23T00:36:11;3.60;90.60
43651;DHT22;29247;50.944;5.382;2023-01-23T00:38:37;3.60;90.60
43651;DHT22;29247;50.944;5.382;2023-01-23T00:41:03;3.50;90.60
43651;DHT22;29247;50.944;5.382;2023-01-23T00:43:30;3.60;90.60
43651;DHT22;29247;50.944;5.382;2023-01-23T00:45:56;3.60;90.60
43651;DHT22;29247;50.944;5.382;2023-01-23T00:48:25;3.60;90.60
43651;DHT22;29247;50.944;5.382;2023-01-23T00:50:53;3.60;90.60
43651;DHT22;29247;50.944;5.382;2023-01-23T00:53:19;3.60;90.60
43651;DHT22;29247;50.944;5.382;2023-01-23T00:55:45;3.60;90.60
43651;DHT22;29247;50.944;5.382;2023-01-23T00:58:11;3.60;90.60
43651;DHT22;29247;50.944;5.382;2023-01-23T01:00:37;3.60;90.60
43651;DHT22;29247;50.944;5.382;2023-01-23T01:03:03;3.60;90.60
43651;DHT22;29247;50.944;5.382;2023-01-23T01:05:29;3.60;90.60
43651;DHT22;29247;50.944;5.382;2023-01-23T01:07:57;3.60;90.60
43651;DHT22;29247;50.944;5.382;2023-01-23T01:10:23;3.50;90.60
43651;DHT22;29247;50.944;5.382;2023-01-23T01:12:58;3.60;90.60
43651;DHT22;29247;50.944;5.382;2023-01-23T01:15:27;3.60;90.60
43651;DHT22;29247;50.944;5.382;2023-01-23T01:17:53;3.60;90.60
43651;DHT22;29247;50.944;5.382;2023-01-23T01:20:22;3.60;90.60
43651;DHT22;29247;50.944;5.382;2023-01-23T01:23:00;3.60;90.60
43651;DHT22;29247;50.944;5.382;2023-01-23T01:25:26;3.60;90.60
43651;DHT22;29247;50.944;5.382;2023-01-23T01:27:52;3.60;90.60
43651;DHT22;29247;50.944;5.382;2023-01-23T01:30:18;3.60;90.60
43651;DHT22;29247;50.944;5.382;2023-01-23T01:32:43;3.60;90.60
43651;DHT22;29247;50.944;5.382;2023-01-23T01:35:11;3.60;90.70
43651;DHT22;29247;50.944;5.382;2023-01-23T01:37:42;3.60;90.70
43651;DHT22;29247;50.944;5.382;2023-01-23T01:40:15;3.60;90.70
43651;DHT22;29247;50.944;5.382;2023-01-23T01:42:48;3.50;90.70
43651;DHT22;29247;50.944;5.382;2023-01-23T01:48:23;3.50;90.80
43651;DHT22;29247;50.944;5.382;2023-01-23T01:50:52;3.50;90.80
43651;DHT22;29247;50.944;5.382;2023-01-23T01:53:20;3.50;90.80
43651;DHT22;29247;50.944;5.382;2023-01-23T01:55:47;3.50;90.80
43651;DHT22;29247;50.944;5.382;2023-01-23T01:58:14;3.50;90.80
43651;DHT22;29247;50.944;5.382;2023-01-23T02:00:40;3.50;90.80
43651;DHT22;29247;50.944;5.382;2023-01-23T02:03:08;3.50;90.80
43651;DHT22;29247;50.944;5.382;2023-01-23T02:05:42;3.50;90.90
43651;DHT22;29247;50.944;5.382;2023-01-23T02:08:41;3.50;90.90
43651;DHT22;29247;50.944;5.382;2023-01-23T02:11:08;3.50;91.00
43651;DHT22;29247;50.944;5.382;2023-01-23T02:13:38;3.50;90.90
43651;DHT22;29247;50.944;5.382;2023-01-23T02:16:13;3.60;91.00
43651;DHT22;29247;50.944;5.382;2023-01-23T02:18:42;3.50;91.00
43651;DHT22;29247;50.944;5.382;2023-01-23T02:21:14;3.50;91.00
43651;DHT22;29247;50.944;5.382;2023-01-23T02:23:47;3.50;91.00
43651;DHT22;29247;50.944;5.382;2023-01-23T02:26:21;3.50;91.00
43651;DHT22;29247;50.944;5.382;2023-01-23T02:28:50;3.50;91.00
43651;DHT22;29247;50.944;5.382;2023-01-23T02:31:19;3.50;91.00
43651;DHT22;29247;50.944;5.382;2023-01-23T02:33:48;3.50;91.00
43651;DHT22;29247;50.944;5.382;2023-01-23T02:36:16;3.50;91.10
43651;DHT22;29247;50.944;5.382;2023-01-23T02:41:34;3.50;91.10
43651;DHT22;29247;50.944;5.382;2023-01-23T02:44:08;3.50;91.00
43651;DHT22;29247;50.944;5.382;2023-01-23T02:46:41;3.50;91.00
43651;DHT22;29247;50.944;5.382;2023-01-23T02:49:09;3.50;91.00
43651;DHT22;29247;50.944;5.382;2023-01-23T02:51:35;3.50;91.00
43651;DHT22;29247;50.944;5.382;2023-01-23T02:54:01;3.50;91.00
43651;DHT22;29247;50.944;5.382;2023-01-23T02:56:26;3.50;91.00
43651;DHT22;29247;50.944;5.382;2023-01-23T02:58:52;3.50;91.10
43651;DHT22;29247;50.944;5.382;2023-01-23T03:01:37;3.50;91.00
43651;DHT22;29247;50.944;5.382;2023-01-23T03:04:03;3.50;91.00
43651;DHT22;29247;50.944;5.382;2023-01-23T03:06:32;3.50;91.00
43651;DHT22;29247;50.944;5.382;2023-01-23T03:09:13;3.50;91.00
43651;DHT22;29247;50.944;5.382;2023-01-23T03:11:41;3.50;91.10
43651;DHT22;29247;50.944;5.382;2023-01-23T03:14:10;3.50;91.00
43651;DHT22;29247;50.944;5.382;2023-01-23T03:16:38;3.50;91.10
43651;DHT22;29247;50.944;5.382;2023-01-23T03:19:06;3.50;91.10
43651;DHT22;29247;50.944;5.382;2023-01-23T03:21:37;3.50;91.10
43651;DHT22;29247;50.944;5.382;2023-01-23T03:24:09;3.50;91.10
43651;DHT22;29247;50.944;5.382;2023-01-23T03:26:38;3.50;91.10
43651;DHT22;29247;50.944;5.382;2023-01-23T03:29:04;3.50;91.00
43651;DHT22;29247;50.944;5.382;2023-01-23T03:31:48;3.60;91.00
43651;DHT22;29247;50.944;5.382;2023-01-23T03:34:17;3.50;91.10
43651;DHT22;29247;50.944;5.382;2023-01-23T03:36:45;3.50;91.20
43651;DHT22;29247;50.944;5.382;2023-01-23T03:39:13;3.50;91.20
43651;DHT22;29247;50.944;5.382;2023-01-23T03:41:58;3.50;91.20
43651;DHT22;29247;50.944;5.382;2023-01-23T03:44:23;3.50;91.30
43651;DHT22;29247;50.944;5.382;2023-01-23T03:46:50;3.50;91.40
43651;DHT22;29247;50.944;5.382;2023-01-23T03:49:17;3.50;91.40
43651;DHT22;29247;50.944;5.382;2023-01-23T03:51:43;3.50;91.40
43651;DHT22;29247;50.944;5.382;2023-01-23T03:54:11;3.50;91.40
43651;DHT22;29247;50.944;5.382;2023-01-23T03:56:39;3.50;91.40
43651;DHT22;29247;50.944;5.382;2023-01-23T03:59:05;3.50;91.40
43651;DHT22;29247;50.944;5.382;2023-01-23T04:01:31;3.50;91.50
43651;DHT22;29247;50.944;5.382;2023-01-23T04:03:56;3.50;91.50
43651;DHT22;29247;50.944;5.382;2023-01-23T04:06:22;3.50;91.50
43651;DHT22;29247;50.944;5.382;2023-01-23T04:08:48;3.50;91.50
43651;DHT22;29247;50.944;5.382;2023-01-23T04:11:14;3.50;91.50
43651;DHT22;29247;50.944;5.382;2023-01-23T04:13:39;3.50;91.50
43651;DHT22;29247;50.944;5.382;2023-01-23T04:16:08;3.50;91.80
43651;DHT22;29247;50.944;5.382;2023-01-23T04:18:34;3.60;91.40
43651;DHT22;29247;50.944;5.382;2023-01-23T04:21:02;3.60;91.40
43651;DHT22;29247;50.944;5.382;2023-01-23T04:23:28;3.50;91.40
43651;DHT22;29247;50.944;5.382;2023-01-23T04:25:53;3.50;91.40
43651;DHT22;29247;50.944;5.382;2023-01-23T04:28:22;3.60;91.40
43651;DHT22;29247;50.944;5.382;2023-01-23T04:30:49;3.50;91.40
43651;DHT22;29247;50.944;5.382;2023-01-23T04:33:16;3.60;91.40
43651;DHT22;29247;50.944;5.382;2023-01-23T04:36:09;3.60;91.40
43651;DHT22;29247;50.944;5.382;2023-01-23T04:38:35;3.60;91.40
43651;DHT22;29247;50.944;5.382;2023-01-23T04:41:02;3.60;91.30
43651;DHT22;29247;50.944;5.382;2023-01-23T04:43:28;3.60;91.30
43651;DHT22;29247;50.944;5.382;2023-01-23T04:45:59;3.60;91.30
43651;DHT22;29247;50.944;5.382;2023-01-23T04:48:25;3.60;91.30
43651;DHT22;29247;50.944;5.382;2023-01-23T04:50:51;3.60;91.40
43651;DHT22;29247;50.944;5.382;2023-01-23T04:53:17;3.60;91.40
43651;DHT22;29247;50.944;5.382;2023-01-23T04:55:46;3.60;91.40
43651;DHT22;29247;50.944;5.382;2023-01-23T04:58:13;3.60;91.40
43651;DHT22;29247;50.944;5.382;2023-01-23T05:00:38;3.60;91.40
43651;DHT22;29247;50.944;5.382;2023-01-23T05:03:08;3.50;91.50
43651;DHT22;29247;50.944;5.382;2023-01-23T05:05:34;3.60;91.50
43651;DHT22;29247;50.944;5.382;2023-01-23T05:08:00;3.60;91.50
43651;DHT22;29247;50.944;5.382;2023-01-23T05:10:31;3.60;91.50
43651;DHT22;29247;50.944;5.382;2023-01-23T05:12:56;3.60;91.50
43651;DHT22;29247;50.944;5.382;2023-01-23T05:15:22;3.60;91.60
43651;DHT22;29247;50.944;5.382;2023-01-23T05:17:48;3.50;91.50
43651;DHT22;29247;50.944;5.382;2023-01-23T05:22:40;3.50;91.50
43651;DHT22;29247;50.944;5.382;2023-01-23T05:25:27;3.60;91.50
43651;DHT22;29247;50.944;5.382;2023-01-23T05:27:53;3.60;91.50
43651;DHT22;29247;50.944;5.382;2023-01-23T05:30:21;3.60;91.50
43651;DHT22;29247;50.944;5.382;2023-01-23T05:32:47;3.60;91.50
43651;DHT22;29247;50.944;5.382;2023-01-23T05:35:13;3.60;91.50
43651;DHT22;29247;50.944;5.382;2023-01-23T05:37:43;3.60;91.50
43651;DHT22;29247;50.944;5.382;2023-01-23T05:40:14;3.60;91.50
43651;DHT22;29247;50.944;5.382;2023-01-23T05:42:40;3.60;91.40
43651;DHT22;29247;50.944;5.382;2023-01-23T05:45:06;3.60;91.40
43651;DHT22;29247;50.944;5.382;2023-01-23T05:47:32;3.60;91.40
43651;DHT22;29247;50.944;5.382;2023-01-23T05:49:58;3.60;91.40
43651;DHT22;29247;50.944;5.382;2023-01-23T05:52:23;3.60;91.40
43651;DHT22;29247;50.944;5.382;2023-01-23T05:54:51;3.60;91.40
43651;DHT22;29247;50.944;5.382;2023-01-23T05:57:17;3.60;91.40
43651;DHT22;29247;50.944;5.382;2023-01-23T05:59:44;3.60;91.30
43651;DHT22;29247;50.944;5.382;2023-01-23T06:02:10;3.60;91.40
43651;DHT22;29247;50.944;5.382;2023-01-23T06:04:36;3.60;91.70
43651;DHT22;29247;50.944;5.382;2023-01-23T06:07:02;3.70;91.40
43651;DHT22;29247;50.944;5.382;2023-01-23T06:09:28;3.60;91.30
43651;DHT22;29247;50.944;5.382;2023-01-23T06:11:54;3.60;91.30
43651;DHT22;29247;50.944;5.382;2023-01-23T06:14:22;3.60;91.30
43651;DHT22;29247;50.944;5.382;2023-01-23T06:16:48;3.60;91.30
43651;DHT22;29247;50.944;5.382;2023-01-23T06:19:16;3.70;91.30
43651;DHT22;29247;50.944;5.382;2023-01-23T06:21:42;3.70;91.30
43651;DHT22;29247;50.944;5.382;2023-01-23T06:24:09;3.60;91.30
43651;DHT22;29247;50.944;5.382;2023-01-23T06:26:35;3.60;91.30
43651;DHT22;29247;50.944;5.382;2023-01-23T06:29:00;3.60;91.20
43651;DHT22;29247;50.944;5.382;2023-01-23T06:31:26;3.60;91.20
43651;DHT22;29247;50.944;5.382;2023-01-23T06:33:54;3.60;91.20
43651;DHT22;29247;50.944;5.382;2023-01-23T06:36:20;3.60;91.20
43651;DHT22;29247;50.944;5.382;2023-01-23T06:38:47;3.60;91.20
43651;DHT22;29247;50.944;5.382;2023-01-23T06:41:13;3.60;91.30
43651;DHT22;29247;50.944;5.382;2023-01-23T06:43:39;3.60;91.30
43651;DHT22;29247;50.944;5.382;2023-01-23T06:46:07;3.60;91.30
43651;DHT22;29247;50.944;5.382;2023-01-23T06:48:39;3.60;91.30
43651;DHT22;29247;50.944;5.382;2023-01-23T06:51:05;3.60;91.30
43651;DHT22;29247;50.944;5.382;2023-01-23T06:53:31;3.70;91.30
43651;DHT22;29247;50.944;5.382;2023-01-23T06:56:01;3.70;91.30
43651;DHT22;29247;50.944;5.382;2023-01-23T06:58:28;3.60;91.30
43651;DHT22;29247;50.944;5.382;2023-01-23T07:00:54;3.70;91.30
43651;DHT22;29247;50.944;5.382;2023-01-23T07:03:19;3.70;91.40
43651;DHT22;29247;50.944;5.382;2023-01-23T07:05:47;3.60;91.30
43651;DHT22;29247;50.944;5.382;2023-01-23T07:08:14;3.70;91.30
43651;DHT22;29247;50.944;5.382;2023-01-23T07:10:40;3.70;91.30
43651;DHT22;29247;50.944;5.382;2023-01-23T07:13:10;3.60;91.40
43651;DHT22;29247;50.944;5.382;2023-01-23T07:15:39;3.60;91.40
43651;DHT22;29247;50.944;5.382;2023-01-23T07:18:08;3.70;91.40
43651;DHT22;29247;50.944;5.382;2023-01-23T07:20:33;3.60;91.40
43651;DHT22;29247;50.944;5.382;2023-01-23T07:23:02;3.70;91.50
43651;DHT22;29247;50.944;5.382;2023-01-23T07:25:29;3.70;91.50
43651;DHT22;29247;50.944;5.382;2023-01-23T07:27:56;3.70;91.50
43651;DHT22;29247;50.944;5.382;2023-01-23T07:30:24;3.60;91.50
43651;DHT22;29247;50.944;5.382;2023-01-23T07:32:51;3.60;91.50
43651;DHT22;29247;50.944;5.382;2023-01-23T07:35:16;3.60;91.50
43651;DHT22;29247;50.944;5.382;2023-01-23T07:37:43;3.60;91.50
43651;DHT22;29247;50.944;5.382;2023-01-23T07:40:09;3.60;91.50
43651;DHT22;29247;50.944;5.382;2023-01-23T07:42:35;3.60;91.50
43651;DHT22;29247;50.944;5.382;2023-01-23T07:45:01;3.70;91.60
43651;DHT22;29247;50.944;5.382;2023-01-23T07:47:29;3.70;91.60
43651;DHT22;29247;50.944;5.382;2023-01-23T07:49:57;3.70;91.50
43651;DHT22;29247;50.944;5.382;2023-01-23T07:52:23;3.70;91.50
43651;DHT22;29247;50.944;5.382;2023-01-23T07:54:48;3.70;91.50
43651;DHT22;29247;50.944;5.382;2023-01-23T07:57:14;3.70;91.50
43651;DHT22;29247;50.944;5.382;2023-01-23T07:59:40;3.70;91.50
43651;DHT22;29247;50.944;5.382;2023-01-23T08:02:08;3.80;91.50
43651;DHT22;29247;50.944;5.382;2023-01-23T08:04:36;3.80;91.50
43651;DHT22;29247;50.944;5.382;2023-01-23T08:07:05;3.80;91.50
43651;DHT22;29247;50.944;5.382;2023-01-23T08:09:32;3.80;91.80
43651;DHT22;29247;50.944;5.382;2023-01-23T08:12:00;3.80;91.50
43651;DHT22;29247;50.944;5.382;2023-01-23T08:14:26;3.80;91.50
43651;DHT22;29247;50.944;5.382;2023-01-23T08:16:55;3.80;91.50
43651;DHT22;29247;50.944;5.382;2023-01-23T08:19:21;3.80;91.50
43651;DHT22;29247;50.944;5.382;2023-01-23T08:21:52;3.80;91.50
43651;DHT22;29247;50.944;5.382;2023-01-23T08:24:18;3.90;91.50
43651;DHT22;29247;50.944;5.382;2023-01-23T08:26:44;3.90;91.50
43651;DHT22;29247;50.944;5.382;2023-01-23T08:29:10;3.90;91.50
43651;DHT22;29247;50.944;5.382;2023-01-23T08:31:37;3.90;91.50
43651;DHT22;29247;50.944;5.382;2023-01-23T08:34:03;3.90;91.50
43651;DHT22;29247;50.944;5.382;2023-01-23T08:36:30;3.90;91.50
43651;DHT22;29247;50.944;5.382;2023-01-23T08:38:58;3.90;91.50
43651;DHT22;29247;50.944;5.382;2023-01-23T08:41:27;4.00;91.50
43651;DHT22;29247;50.944;5.382;2023-01-23T08:43:52;4.00;91.50
43651;DHT22;29247;50.944;5.382;2023-01-23T08:46:24;4.00;91.50
43651;DHT22;29247;50.944;5.382;2023-01-23T08:48:50;4.00;91.50
43651;DHT22;29247;50.944;5.382;2023-01-23T08:51:15;4.10;91.90
43651;DHT22;29247;50.944;5.382;2023-01-23T08:53:41;4.00;91.50
43651;DHT22;29247;50.944;5.382;2023-01-23T08:56:14;4.00;91.50
43651;DHT22;29247;50.944;5.382;2023-01-23T08:58:44;4.00;91.50
43651;DHT22;29247;50.944;5.382;2023-01-23T09:01:15;4.10;91.50
43651;DHT22;29247;50.944;5.382;2023-01-23T09:03:41;4.00;91.50
43651;DHT22;29247;50.944;5.382;2023-01-23T09:06:08;3.90;91.50
43651;DHT22;29247;50.944;5.382;2023-01-23T09:08:35;4.10;91.50
43651;DHT22;29247;50.944;5.382;2023-01-23T09:11:03;4.10;91.50
43651;DHT22;29247;50.944;5.382;2023-01-23T09:13:29;4.10;91.50
43651;DHT22;29247;50.944;5.382;2023-01-23T09:15:55;4.20;91.50
43651;DHT22;29247;50.944;5.382;2023-01-23T09:18:23;4.20;91.60
43651;DHT22;29247;50.944;5.382;2023-01-23T09:20:53;4.20;91.50
43651;DHT22;29247;50.944;5.382;2023-01-23T09:23:25;4.20;91.50
43651;DHT22;29247;50.944;5.382;2023-01-23T09:25:53;4.20;91.50
43651;DHT22;29247;50.944;5.382;2023-01-23T09:28:24;4.20;91.50
43651;DHT22;29247;50.944;5.382;2023-01-23T09:30:50;4.20;91.50
43651;DHT22;29247;50.944;5.382;2023-01-23T09:33:18;4.20;91.50
43651;DHT22;29247;50.944;5.382;2023-01-23T09:35:52;4.30;91.50
43651;DHT22;29247;50.944;5.382;2023-01-23T09:38:21;4.30;91.50
43651;DHT22;29247;50.944;5.382;2023-01-23T09:40:57;4.30;91.50
43651;DHT22;29247;50.944;5.382;2023-01-23T09:46:00;4.30;91.50
43651;DHT22;29247;50.944;5.382;2023-01-23T09:48:45;4.30;91.50
43651;DHT22;29247;50.944;5.382;2023-01-23T09:51:59;4.30;91.50
43651;DHT22;29247;50.944;5.382;2023-01-23T09:54:16;4.30;91.50
43651;DHT22;29247;50.944;5.382;2023-01-23T09:56:45;4.30;91.40
43651;DHT22;29247;50.944;5.382;2023-01-23T09:59:36;4.40;91.40
43651;DHT22;29247;50.944;5.382;2023-01-23T10:02:19;4.30;91.40
43651;DHT22;29247;50.944;5.382;2023-01-23T10:04:49;4.30;91.30
43651;DHT22;29247;50.944;5.382;2023-01-23T10:07:27;4.40;91.30
43651;DHT22;29247;50.944;5.382;2023-01-23T10:13:32;4.40;91.30
43651;DHT22;29247;50.944;5.382;2023-01-23T10:16:23;4.40;91.30
43651;DHT22;29247;50.944;5.382;2023-01-23T10:27:36;4.50;91.30
43651;DHT22;29247;50.944;5.382;2023-01-23T10:30:28;4.50;91.40
43651;DHT22;29247;50.944;5.382;2023-01-23T10:33:10;4.50;91.40
43651;DHT22;29247;50.944;5.382;2023-01-23T10:35:47;4.60;91.50
43651;DHT22;29247;50.944;5.382;2023-01-23T10:40:52;4.60;91.30
43651;DHT22;29247;50.944;5.382;2023-01-23T10:43:39;4.70;91.30
43651;DHT22;29247;50.944;5.382;2023-01-23T10:46:41;4.70;91.20
43651;DHT22;29247;50.944;5.382;2023-01-23T10:49:07;4.80;91.20
43651;DHT22;29247;50.944;5.382;2023-01-23T10:56:46;4.90;91.10
43651;DHT22;29247;50.944;5.382;2023-01-23T10:59:25;4.90;91.00
43651;DHT22;29247;50.944;5.382;2023-01-23T11:02:03;4.90;90.90
43651;DHT22;29247;50.944;5.382;2023-01-23T11:04:45;4.90;90.80
43651;DHT22;29247;50.944;5.382;2023-01-23T11:07:13;4.90;90.80
43651;DHT22;29247;50.944;5.382;2023-01-23T11:12:33;5.00;90.80
43651;DHT22;29247;50.944;5.382;2023-01-23T11:15:32;5.00;90.70
43651;DHT22;29247;50.944;5.382;2023-01-23T11:18:00;5.00;90.70
43651;DHT22;29247;50.944;5.382;2023-01-23T11:25:43;4.90;90.50
43651;DHT22;29247;50.944;5.382;2023-01-23T11:28:27;4.90;90.50
43651;DHT22;29247;50.944;5.382;2023-01-23T11:33:53;4.90;90.50
43651;DHT22;29247;50.944;5.382;2023-01-23T11:41:59;4.90;90.50
43651;DHT22;29247;50.944;5.382;2023-01-23T11:44:29;5.00;90.60
43651;DHT22;29247;50.944;5.382;2023-01-23T12:00:32;5.00;90.50
43651;DHT22;29247;50.944;5.382;2023-01-23T12:06:47;5.00;90.50
43651;DHT22;29247;50.944;5.382;2023-01-23T12:09:09;5.00;90.50
43651;DHT22;29247;50.944;5.382;2023-01-23T12:15:18;5.10;90.50
43651;DHT22;29247;50.944;5.382;2023-01-23T12:20:34;5.10;90.30
43651;DHT22;29247;50.944;5.382;2023-01-23T12:37:09;5.30;90.30
43651;DHT22;29247;50.944;5.382;2023-01-23T12:40:08;5.30;90.30
43651;DHT22;29247;50.944;5.382;2023-01-23T12:45:28;5.40;90.20
43651;DHT22;29247;50.944;5.382;2023-01-23T12:48:21;5.40;90.00
43651;DHT22;29247;50.944;5.382;2023-01-23T12:50:59;5.40;90.10
43651;DHT22;29247;50.944;5.382;2023-01-23T12:53:33;5.40;90.00
43651;DHT22;29247;50.944;5.382;2023-01-23T12:56:29;5.50;90.10
43651;DHT22;29247;50.944;5.382;2023-01-23T12:59:12;5.50;90.00
43651;DHT22;29247;50.944;5.382;2023-01-23T13:07:05;5.50;89.30
43651;DHT22;29247;50.944;5.382;2023-01-23T13:12:24;5.50;89.40
43651;DHT22;29247;50.944;5.382;2023-01-23T13:15:37;5.50;89.10
43651;DHT22;29247;50.944;5.382;2023-01-23T13:17:46;5.50;89.00
43651;DHT22;29247;50.944;5.382;2023-01-23T13:20:24;5.40;89.00
43651;DHT22;29247;50.944;5.382;2023-01-23T13:31:32;5.30;89.00
43651;DHT22;29247;50.944;5.382;2023-01-23T13:34:42;5.40;89.10
43651;DHT22;29247;50.944;5.382;2023-01-23T13:36:53;5.40;89.00
43651;DHT22;29247;50.944;5.382;2023-01-23T13:39:27;5.30;88.90
43651;DHT22;29247;50.944;5.382;2023-01-23T13:45:33;5.20;88.90
43651;DHT22;29247;50.944;5.382;2023-01-23T13:48:18;5.30;88.90
43651;DHT22;29247;50.944;5.382;2023-01-23T13:51:18;5.30;88.80
43651;DHT22;29247;50.944;5.382;2023-01-23T13:53:46;5.20;88.50
43651;DHT22;29247;50.944;5.382;2023-01-23T13:56:31;5.20;88.40
43651;DHT22;29247;50.944;5.382;2023-01-23T14:02:03;5.20;88.40
43651;DHT22;29247;50.944;5.382;2023-01-23T14:05:07;5.20;88.30
43651;DHT22;29247;50.944;5.382;2023-01-23T14:07:40;5.20;88.20
43651;DHT22;29247;50.944;5.382;2023-01-23T14:10:46;5.20;88.10
43651;DHT22;29247;50.944;5.382;2023-01-23T14:13:17;5.10;88.20
43651;DHT22;29247;50.944;5.382;2023-01-23T14:15:51;5.10;88.30
43651;DHT22;29247;50.944;5.382;2023-01-23T14:18:45;5.10;88.00
43651;DHT22;29247;50.944;5.382;2023-01-23T14:23:50;5.10;87.90
43651;DHT22;29247;50.944;5.382;2023-01-23T14:26:18;5.10;87.80
43651;DHT22;29247;50.944;5.382;2023-01-23T14:28:58;5.10;87.80
43651;DHT22;29247;50.944;5.382;2023-01-23T14:31:33;5.10;87.80
43651;DHT22;29247;50.944;5.382;2023-01-23T14:34:05;5.10;87.70
43651;DHT22;29247;50.944;5.382;2023-01-23T14:36:36;5.10;87.50
43651;DHT22;29247;50.944;5.382;2023-01-23T14:39:05;5.10;87.50
43651;DHT22;29247;50.944;5.382;2023-01-23T14:41:38;5.10;87.50
43651;DHT22;29247;50.944;5.382;2023-01-23T14:44:06;5.10;87.50
43651;DHT22;29247;50.944;5.382;2023-01-23T14:46:39;5.10;87.40
43651;DHT22;29247;50.944;5.382;2023-01-23T14:49:09;5.10;87.30
43651;DHT22;29247;50.944;5.382;2023-01-23T14:51:35;5.10;87.40
43651;DHT22;29247;50.944;5.382;2023-01-23T14:56:37;5.10;87.30
43651;DHT22;29247;50.944;5.382;2023-01-23T14:59:21;5.10;87.30
43651;DHT22;29247;50.944;5.382;2023-01-23T15:01:58;5.00;87.20
43651;DHT22;29247;50.944;5.382;2023-01-23T15:04:28;5.00;87.20
43651;DHT22;29247;50.944;5.382;2023-01-23T15:06:58;5.00;87.20
43651;DHT22;29247;50.944;5.382;2023-01-23T15:09:33;5.00;87.20
43651;DHT22;29247;50.944;5.382;2023-01-23T15:12:15;5.00;87.20
43651;DHT22;29247;50.944;5.382;2023-01-23T15:14:41;5.00;87.20
43651;DHT22;29247;50.944;5.382;2023-01-23T15:17:17;5.00;87.10
43651;DHT22;29247;50.944;5.382;2023-01-23T15:19:53;4.90;87.00
43651;DHT22;29247;50.944;5.382;2023-01-23T15:22:29;4.90;87.00
43651;DHT22;29247;50.944;5.382;2023-01-23T15:25:24;4.90;86.90
43651;DHT22;29247;50.944;5.382;2023-01-23T15:27:50;4.90;86.90
43651;DHT22;29247;50.944;5.382;2023-01-23T15:33:02;4.80;86.80
43651;DHT22;29247;50.944;5.382;2023-01-23T15:35:33;4.90;86.80
43651;DHT22;29247;50.944;5.382;2023-01-23T15:38:02;4.90;86.70
43651;DHT22;29247;50.944;5.382;2023-01-23T15:40:32;4.90;86.70
43651;DHT22;29247;50.944;5.382;2023-01-23T15:43:09;4.90;86.50
43651;DHT22;29247;50.944;5.382;2023-01-23T15:45:38;4.90;86.50
43651;DHT22;29247;50.944;5.382;2023-01-23T15:48:04;4.80;86.60
43651;DHT22;29247;50.944;5.382;2023-01-23T15:50:32;4.80;86.60
43651;DHT22;29247;50.944;5.382;2023-01-23T15:52:57;4.80;86.60
43651;DHT22;29247;50.944;5.382;2023-01-23T15:55:25;4.80;86.60
43651;DHT22;29247;50.944;5.382;2023-01-23T15:57:54;4.80;86.50
43651;DHT22;29247;50.944;5.382;2023-01-23T16:00:23;4.80;86.50
43651;DHT22;29247;50.944;5.382;2023-01-23T16:02:50;4.80;86.40
43651;DHT22;29247;50.944;5.382;2023-01-23T16:05:20;4.80;86.40
43651;DHT22;29247;50.944;5.382;2023-01-23T16:07:48;4.80;86.30
43651;DHT22;29247;50.944;5.382;2023-01-23T16:10:21;4.80;86.30
43651;DHT22;29247;50.944;5.382;2023-01-23T16:12:49;4.80;86.20
43651;DHT22;29247;50.944;5.382;2023-01-23T16:15:28;4.80;86.20
43651;DHT22;29247;50.944;5.382;2023-01-23T16:17:55;4.80;86.20
43651;DHT22;29247;50.944;5.382;2023-01-23T16:20:28;4.80;86.20
43651;DHT22;29247;50.944;5.382;2023-01-23T16:22:57;4.80;86.20
43651;DHT22;29247;50.944;5.382;2023-01-23T16:25:31;4.80;86.20
43651;DHT22;29247;50.944;5.382;2023-01-23T16:27:57;4.70;86.20
43651;DHT22;29247;50.944;5.382;2023-01-23T16:30:26;4.70;86.20
43651;DHT22;29247;50.944;5.382;2023-01-23T16:32:53;4.70;86.10
43651;DHT22;29247;50.944;5.382;2023-01-23T16:35:20;4.80;86.90
43651;DHT22;29247;50.944;5.382;2023-01-23T16:37:51;4.70;86.20
43651;DHT22;29247;50.944;5.382;2023-01-23T16:40:22;4.70;86.80
43651;DHT22;29247;50.944;5.382;2023-01-23T16:42:50;4.70;86.10
43651;DHT22;29247;50.944;5.382;2023-01-23T16:45:20;4.70;86.10
43651;DHT22;29247;50.944;5.382;2023-01-23T16:47:51;4.70;86.10
43651;DHT22;29247;50.944;5.382;2023-01-23T16:50:25;4.70;86.00
43651;DHT22;29247;50.944;5.382;2023-01-23T16:52:56;4.70;86.10
43651;DHT22;29247;50.944;5.382;2023-01-23T16:55:32;4.70;86.00
43651;DHT22;29247;50.944;5.382;2023-01-23T16:58:01;4.70;86.10
43651;DHT22;29247;50.944;5.382;2023-01-23T17:00:29;4.70;86.00
43651;DHT22;29247;50.944;5.382;2023-01-23T17:02:59;4.70;86.00
43651;DHT22;29247;50.944;5.382;2023-01-23T17:05:28;4.70;85.90
43651;DHT22;29247;50.944;5.382;2023-01-23T17:07:53;4.70;85.80
43651;DHT22;29247;50.944;5.382;2023-01-23T17:10:24;4.70;85.80
43651;DHT22;29247;50.944;5.382;2023-01-23T17:12:55;4.70;85.70
43651;DHT22;29247;50.944;5.382;2023-01-23T17:15:25;4.70;85.60
43651;DHT22;29247;50.944;5.382;2023-01-23T17:17:59;4.70;85.60
43651;DHT22;29247;50.944;5.382;2023-01-23T17:20:28;4.70;85.40
43651;DHT22;29247;50.944;5.382;2023-01-23T17:22:54;4.70;85.60
43651;DHT22;29247;50.944;5.382;2023-01-23T17:25:25;4.60;85.60
43651;DHT22;29247;50.944;5.382;2023-01-23T17:27:51;4.60;85.70
43651;DHT22;29247;50.944;5.382;2023-01-23T17:30:23;4.60;85.70
43651;DHT22;29247;50.944;5.382;2023-01-23T17:32:53;4.60;85.80
43651;DHT22;29247;50.944;5.382;2023-01-23T17:35:25;4.60;85.70
43651;DHT22;29247;50.944;5.382;2023-01-23T17:37:53;4.60;85.80
43651;DHT22;29247;50.944;5.382;2023-01-23T17:40:23;4.60;85.80
43651;DHT22;29247;50.944;5.382;2023-01-23T17:42:49;4.60;85.80
43651;DHT22;29247;50.944;5.382;2023-01-23T17:45:22;4.60;85.90
43651;DHT22;29247;50.944;5.382;2023-01-23T17:47:52;4.60;85.80
43651;DHT22;29247;50.944;5.382;2023-01-23T17:50:25;4.60;85.80
43651;DHT22;29247;50.944;5.382;2023-01-23T17:52:51;4.60;85.70
43651;DHT22;29247;50.944;5.382;2023-01-23T17:55:23;4.60;85.70
43651;DHT22;29247;50.944;5.382;2023-01-23T17:57:52;4.60;85.70
43651;DHT22;29247;50.944;5.382;2023-01-23T18:00:19;4.60;85.70
43651;DHT22;29247;50.944;5.382;2023-01-23T18:02:54;4.60;85.80
43651;DHT22;29247;50.944;5.382;2023-01-23T18:05:21;4.60;85.90